Empire — PD5101 — position and weather

sailwx.info

Track history (hours):
 
Tides and Currents Weather Stations Pressure Air Temp Water Temp Dewpoint Dewpoint Depression Visibility Wind Speed Wind Dir Waves Ship Positions

Empire

Last reported at 2015-May-02 16:13 UTC. Time now 2015-May-04 02:58 UTC.
Position N 48°41' E 007°55'.

Length 183 m; draft 3 m.

Type: Ship. MMSI: 244670090.

Date/timePositionNaut miles runAvg speedWind from/ knotsBaromVisibWave heightAir tempDewpointWater temp
2015-May-02 16:13N 48°41' E 007°55'0 0.3
2015-May-02 15:33N 48°41' E 007°55'3 2.7
2015-May-02 14:33N 48°43' E 007°58'6 5.5
2015-May-02 13:31N 48°47' E 008°04'7 3.4
2015-May-02 11:25N 48°54' E 008°08'5 5.0
2015-May-02 10:30N 48°58' E 008°12'5 5.2
2015-May-02 09:33N 49°01' E 008°18'5 4.8
2015-May-02 08:33N 49°05' E 008°21'5 4.9
2015-May-02 07:33N 49°10' E 008°22'5 5.0
2015-May-02 06:34N 49°15' E 008°24'5 4.6
2015-May-02 05:30N 49°18' E 008°29'4 3.9
2015-May-02 04:33N 49°22' E 008°30'4 1.0
2015-May-02 00:19N 49°26' E 008°31'100 2.0
2015-Apr-29 23:03N 50°49' E 007°02'2 3.6
2015-Apr-29 22:25N 50°50' E 006°59'4 3.4
2015-Apr-29 21:15N 50°54' E 007°02'3 3.7
2015-Apr-29 20:30N 50°55' E 006°58'15 3.7
2015-Apr-29 16:33N 51°09' E 006°51'2 2.3
2015-Apr-29 15:33N 51°09' E 006°48'3 3.3
2015-Apr-29 14:33N 51°12' E 006°44'3 2.5
2015-Apr-29 13:33N 51°14' E 006°46'20 3.3
2015-Apr-29 07:32N 51°34' E 006°41'32 4.4
2015-Apr-29 00:14N 51°53' E 006°00'9 4.5
2015-Apr-28 22:14N 51°53' E 005°46'4 5.3
2015-Apr-28 21:31N 51°54' E 005°40'6 5.8
2015-Apr-28 20:29N 51°53' E 005°30'3 3.0
2015-Apr-28 19:33N 51°55' E 005°26'5 5.3
2015-Apr-28 18:33N 51°58' E 005°19'5 5.2
2015-Apr-28 17:33N 52°00' E 005°11'7 6.8
2015-Apr-28 16:33N 52°06' E 005°05'7 6.5
2015-Apr-28 15:33N 52°12' E 004°60'7 7.3
2015-Apr-28 14:33N 52°19' E 005°01'5 5.1
2015-Apr-28 13:33N 52°23' E 004°57'0 0.0
2015-Apr-28 12:33N 52°23' E 004°57'6 6.4
2015-Apr-28 11:34N 52°26' E 004°47'1 1.5
2015-Apr-28 10:33N 52°25' E 004°45'0 0.1
2015-Apr-28 09:33N 52°25' E 004°45'0 0.0
2015-Apr-28 08:33N 52°25' E 004°45'0 0.0
2015-Apr-28 07:33N 52°25' E 004°45'0 0.1
2015-Apr-28 06:33N 52°25' E 004°45'5 5.4
2015-Apr-28 05:34N 52°24' E 004°53'0 0.2
2015-Apr-28 04:33N 52°24' E 004°53'0 0.0
2015-Apr-28 03:33N 52°24' E 004°53'0 0.0
2015-Apr-28 02:33N 52°24' E 004°53'0 0.0
2015-Apr-28 01:33N 52°24' E 004°53'0 0.0
2015-Apr-28 00:33N 52°24' E 004°53'0 0.0
2015-Apr-27 23:34N 52°24' E 004°53'0 0.0
2015-Apr-27 22:33N 52°24' E 004°53'0 0.0
2015-Apr-27 21:33N 52°24' E 004°53'0 0.0
2015-Apr-27 20:33N 52°24' E 004°53'0 0.0
2015-Apr-27 19:33N 52°24' E 004°53'0 0.0
2015-Apr-27 18:33N 52°24' E 004°53'0 0.0
2015-Apr-27 17:33N 52°24' E 004°53'0 0.0
2015-Apr-27 16:33N 52°24' E 004°53'0 0.0
2015-Apr-27 15:33N 52°24' E 004°53'0 0.0
2015-Apr-27 14:33N 52°24' E 004°53'0 0.0
2015-Apr-27 13:33N 52°24' E 004°53'0 0.0
2015-Apr-27 12:33N 52°24' E 004°53'0 0.0
2015-Apr-27 11:33N 52°24' E 004°53'0 0.0
2015-Apr-27 10:33N 52°24' E 004°53'0 0.0
2015-Apr-27 09:33N 52°24' E 004°53'0 0.0
2015-Apr-27 08:33N 52°24' E 004°53'0 0.0
2015-Apr-27 07:33N 52°24' E 004°53'0 0.0
2015-Apr-27 06:33N 52°24' E 004°53'0 0.0
2015-Apr-27 05:33N 52°24' E 004°53'0 0.0
2015-Apr-27 04:33N 52°24' E 004°53'0 0.0
2015-Apr-27 03:33N 52°24' E 004°53'0 0.0
2015-Apr-27 02:33N 52°24' E 004°53'0 0.0
2015-Apr-27 01:33N 52°24' E 004°53'0 0.0
2015-Apr-27 00:33N 52°24' E 004°53'0 0.0
2015-Apr-26 23:33N 52°24' E 004°53'0 0.0
2015-Apr-26 22:33N 52°24' E 004°53'0 0.0
2015-Apr-26 21:33N 52°24' E 004°53'0 0.0
2015-Apr-26 20:33N 52°24' E 004°53'0 0.0
2015-Apr-26 19:33N 52°24' E 004°53'0 0.0
2015-Apr-26 18:33N 52°24' E 004°53'0 0.0
2015-Apr-26 17:33N 52°24' E 004°53'0 0.0
2015-Apr-26 16:33N 52°24' E 004°53'0 0.0
2015-Apr-26 15:33N 52°24' E 004°53'0 0.0
2015-Apr-26 14:33N 52°24' E 004°53'0 0.0
2015-Apr-26 13:33N 52°24' E 004°53'0 0.0
2015-Apr-26 12:33N 52°24' E 004°53'0 0.0
2015-Apr-26 11:33N 52°24' E 004°53'0 0.0
2015-Apr-26 10:33N 52°24' E 004°53'0 0.0
2015-Apr-26 09:33N 52°24' E 004°53'0 0.0
2015-Apr-26 08:33N 52°24' E 004°53'0 0.0
2015-Apr-26 07:33N 52°24' E 004°53'0 0.0
2015-Apr-26 06:33N 52°24' E 004°53'0 0.0
2015-Apr-26 05:33N 52°24' E 004°53'0 0.0
2015-Apr-26 04:33N 52°24' E 004°53'0 0.0
2015-Apr-26 03:33N 52°24' E 004°53'0 0.0
2015-Apr-26 02:33N 52°24' E 004°53'0 0.0
2015-Apr-26 01:33N 52°24' E 004°53'0 0.0
2015-Apr-26 00:33N 52°24' E 004°53'0 0.0
2015-Apr-25 23:33N 52°24' E 004°53'0 0.0
2015-Apr-25 22:33N 52°24' E 004°53'0 0.0
2015-Apr-25 21:33N 52°24' E 004°53'0 0.0
2015-Apr-25 20:33N 52°24' E 004°53'0 0.0
2015-Apr-25 19:33N 52°24' E 004°53'0 0.0
2015-Apr-25 18:33N 52°24' E 004°53'0 0.0
2015-Apr-25 17:33N 52°24' E 004°53'0 0.0
2015-Apr-25 16:33N 52°24' E 004°53'0 0.0
2015-Apr-25 15:33N 52°24' E 004°53'0 0.0
2015-Apr-25 14:33N 52°24' E 004°53'0 0.0
2015-Apr-25 13:33N 52°24' E 004°53'0 0.0
2015-Apr-25 12:33N 52°24' E 004°53'0 0.0
2015-Apr-25 11:33N 52°24' E 004°53'0 0.0
2015-Apr-25 10:33N 52°24' E 004°53'0 0.0
2015-Apr-25 09:33N 52°24' E 004°53'0 0.0
2015-Apr-25 08:33N 52°24' E 004°53'0 0.0
2015-Apr-25 07:33N 52°24' E 004°53'0 0.0
2015-Apr-25 06:33N 52°24' E 004°53'0 0.0
2015-Apr-25 05:33N 52°24' E 004°53'0 0.0
2015-Apr-25 04:33N 52°24' E 004°53'0 0.0
2015-Apr-25 03:33N 52°24' E 004°53'0 0.0
2015-Apr-25 02:33N 52°24' E 004°53'0 0.0
2015-Apr-25 01:33N 52°24' E 004°53'0 0.0
2015-Apr-25 00:33N 52°24' E 004°53'0 0.0
2015-Apr-24 23:33N 52°24' E 004°53'0 0.0
2015-Apr-24 22:33N 52°24' E 004°53'0 0.0
2015-Apr-24 21:33N 52°24' E 004°53'0 0.0
2015-Apr-24 20:33N 52°24' E 004°53'0 0.0
2015-Apr-24 19:33N 52°24' E 004°53'0 0.0
2015-Apr-24 18:33N 52°24' E 004°53'0 0.0
2015-Apr-24 17:33N 52°24' E 004°53'0 0.0
2015-Apr-24 16:33N 52°24' E 004°53'0 0.0
2015-Apr-24 15:33N 52°24' E 004°53'0 0.0
2015-Apr-24 14:33N 52°24' E 004°53'0 0.0
2015-Apr-24 13:33N 52°24' E 004°53'0 0.0
2015-Apr-24 12:33N 52°24' E 004°53'0 0.0
2015-Apr-24 11:33N 52°24' E 004°53'1 1.1
2015-Apr-24 10:33N 52°25' E 004°52'3 2.7
2015-Apr-24 09:34N 52°25' E 004°48'0 0.1
2015-Apr-24 08:33N 52°25' E 004°48'0 0.0
2015-Apr-24 07:33N 52°25' E 004°48'0 0.0
2015-Apr-24 06:34N 52°25' E 004°48'0 0.0
2015-Apr-24 05:33N 52°25' E 004°48'0 0.0
2015-Apr-24 04:34N 52°25' E 004°48'0 0.0
2015-Apr-24 03:33N 52°25' E 004°48'0 0.0
2015-Apr-24 02:33N 52°25' E 004°48'0 0.0
2015-Apr-24 01:34N 52°25' E 004°48'0 0.0
2015-Apr-24 00:34N 52°25' E 004°48'0 0.0
2015-Apr-23 23:33N 52°25' E 004°48'1 0.5
2015-Apr-23 22:34N 52°25' E 004°47'5 5.2
2015-Apr-23 21:34N 52°23' E 004°55'6 6.0
2015-Apr-23 20:33N 52°18' E 005°01'8 6.7
2015-Apr-23 19:25N 52°11' E 004°60'5 6.3
2015-Apr-23 18:33N 52°06' E 005°05'7 6.5
2015-Apr-23 17:33N 52°01' E 005°10'6 6.3
2015-Apr-23 16:33N 51°58' E 005°19'0 0.4
2015-Apr-23 15:33N 51°58' E 005°20'  
Track history (hours):
 
Tides and Currents Weather Stations Pressure Air Temp Water Temp Dewpoint Dewpoint Depression Visibility Wind Speed Wind Dir Waves Ship Positions

Empire

Last reported at 2015-May-02 16:13 UTC. Time now 2015-May-04 02:58 UTC.
Position N 48°41' E 007°55'.

Length 183 m; draft 3 m.

Type: Ship. MMSI: 244670090.

Date/timePositionNaut miles runAvg speedWind from/ knotsBaromVisibWave heightAir tempDewpointWater temp
2015-May-02 16:13N 48°41' E 007°55'0 0.3
2015-May-02 15:33N 48°41' E 007°55'3 2.7
2015-May-02 14:33N 48°43' E 007°58'6 5.5
2015-May-02 13:31N 48°47' E 008°04'7 3.4
2015-May-02 11:25N 48°54' E 008°08'5 5.0
2015-May-02 10:30N 48°58' E 008°12'5 5.2
2015-May-02 09:33N 49°01' E 008°18'5 4.8
2015-May-02 08:33N 49°05' E 008°21'5 4.9
2015-May-02 07:33N 49°10' E 008°22'5 5.0
2015-May-02 06:34N 49°15' E 008°24'5 4.6
2015-May-02 05:30N 49°18' E 008°29'4 3.9
2015-May-02 04:33N 49°22' E 008°30'4 1.0
2015-May-02 00:19N 49°26' E 008°31'100 2.0
2015-Apr-29 23:03N 50°49' E 007°02'2 3.6
2015-Apr-29 22:25N 50°50' E 006°59'4 3.4
2015-Apr-29 21:15N 50°54' E 007°02'3 3.7
2015-Apr-29 20:30N 50°55' E 006°58'15 3.7
2015-Apr-29 16:33N 51°09' E 006°51'2 2.3
2015-Apr-29 15:33N 51°09' E 006°48'3 3.3
2015-Apr-29 14:33N 51°12' E 006°44'3 2.5
2015-Apr-29 13:33N 51°14' E 006°46'20 3.3
2015-Apr-29 07:32N 51°34' E 006°41'32 4.4
2015-Apr-29 00:14N 51°53' E 006°00'9 4.5
2015-Apr-28 22:14N 51°53' E 005°46'4 5.3
2015-Apr-28 21:31N 51°54' E 005°40'6 5.8
2015-Apr-28 20:29N 51°53' E 005°30'3 3.0
2015-Apr-28 19:33N 51°55' E 005°26'5 5.3
2015-Apr-28 18:33N 51°58' E 005°19'5 5.2
2015-Apr-28 17:33N 52°00' E 005°11'7 6.8
2015-Apr-28 16:33N 52°06' E 005°05'7 6.5
2015-Apr-28 15:33N 52°12' E 004°60'7 7.3
2015-Apr-28 14:33N 52°19' E 005°01'5 5.1
2015-Apr-28 13:33N 52°23' E 004°57'0 0.0
2015-Apr-28 12:33N 52°23' E 004°57'6 6.4
2015-Apr-28 11:34N 52°26' E 004°47'1 1.5
2015-Apr-28 10:33N 52°25' E 004°45'0 0.1
2015-Apr-28 09:33N 52°25' E 004°45'0 0.0
2015-Apr-28 08:33N 52°25' E 004°45'0 0.0
2015-Apr-28 07:33N 52°25' E 004°45'0 0.1
2015-Apr-28 06:33N 52°25' E 004°45'5 5.4
2015-Apr-28 05:34N 52°24' E 004°53'0 0.2
2015-Apr-28 04:33N 52°24' E 004°53'0 0.0
2015-Apr-28 03:33N 52°24' E 004°53'0 0.0
2015-Apr-28 02:33N 52°24' E 004°53'0 0.0
2015-Apr-28 01:33N 52°24' E 004°53'0 0.0
2015-Apr-28 00:33N 52°24' E 004°53'0 0.0
2015-Apr-27 23:34N 52°24' E 004°53'0 0.0
2015-Apr-27 22:33N 52°24' E 004°53'0 0.0
2015-Apr-27 21:33N 52°24' E 004°53'0 0.0
2015-Apr-27 20:33N 52°24' E 004°53'0 0.0
2015-Apr-27 19:33N 52°24' E 004°53'0 0.0
2015-Apr-27 18:33N 52°24' E 004°53'0 0.0
2015-Apr-27 17:33N 52°24' E 004°53'0 0.0
2015-Apr-27 16:33N 52°24' E 004°53'0 0.0
2015-Apr-27 15:33N 52°24' E 004°53'0 0.0
2015-Apr-27 14:33N 52°24' E 004°53'0 0.0
2015-Apr-27 13:33N 52°24' E 004°53'0 0.0
2015-Apr-27 12:33N 52°24' E 004°53'0 0.0
2015-Apr-27 11:33N 52°24' E 004°53'0 0.0
2015-Apr-27 10:33N 52°24' E 004°53'0 0.0
2015-Apr-27 09:33N 52°24' E 004°53'0 0.0
2015-Apr-27 08:33N 52°24' E 004°53'0 0.0
2015-Apr-27 07:33N 52°24' E 004°53'0 0.0
2015-Apr-27 06:33N 52°24' E 004°53'0 0.0
2015-Apr-27 05:33N 52°24' E 004°53'0 0.0
2015-Apr-27 04:33N 52°24' E 004°53'0 0.0
2015-Apr-27 03:33N 52°24' E 004°53'0 0.0
2015-Apr-27 02:33N 52°24' E 004°53'0 0.0
2015-Apr-27 01:33N 52°24' E 004°53'0 0.0
2015-Apr-27 00:33N 52°24' E 004°53'0 0.0
2015-Apr-26 23:33N 52°24' E 004°53'0 0.0
2015-Apr-26 22:33N 52°24' E 004°53'0 0.0
2015-Apr-26 21:33N 52°24' E 004°53'0 0.0
2015-Apr-26 20:33N 52°24' E 004°53'0 0.0
2015-Apr-26 19:33N 52°24' E 004°53'0 0.0
2015-Apr-26 18:33N 52°24' E 004°53'0 0.0
2015-Apr-26 17:33N 52°24' E 004°53'0 0.0
2015-Apr-26 16:33N 52°24' E 004°53'0 0.0
2015-Apr-26 15:33N 52°24' E 004°53'0 0.0
2015-Apr-26 14:33N 52°24' E 004°53'0 0.0
2015-Apr-26 13:33N 52°24' E 004°53'0 0.0
2015-Apr-26 12:33N 52°24' E 004°53'0 0.0
2015-Apr-26 11:33N 52°24' E 004°53'0 0.0
2015-Apr-26 10:33N 52°24' E 004°53'0 0.0
2015-Apr-26 09:33N 52°24' E 004°53'0 0.0
2015-Apr-26 08:33N 52°24' E 004°53'0 0.0
2015-Apr-26 07:33N 52°24' E 004°53'0 0.0
2015-Apr-26 06:33N 52°24' E 004°53'0 0.0
2015-Apr-26 05:33N 52°24' E 004°53'0 0.0
2015-Apr-26 04:33N 52°24' E 004°53'0 0.0
2015-Apr-26 03:33N 52°24' E 004°53'0 0.0
2015-Apr-26 02:33N 52°24' E 004°53'0 0.0
2015-Apr-26 01:33N 52°24' E 004°53'0 0.0
2015-Apr-26 00:33N 52°24' E 004°53'0 0.0
2015-Apr-25 23:33N 52°24' E 004°53'0 0.0
2015-Apr-25 22:33N 52°24' E 004°53'0 0.0
2015-Apr-25 21:33N 52°24' E 004°53'0 0.0
2015-Apr-25 20:33N 52°24' E 004°53'0 0.0
2015-Apr-25 19:33N 52°24' E 004°53'0 0.0
2015-Apr-25 18:33N 52°24' E 004°53'0 0.0
2015-Apr-25 17:33N 52°24' E 004°53'0 0.0
2015-Apr-25 16:33N 52°24' E 004°53'0 0.0
2015-Apr-25 15:33N 52°24' E 004°53'0 0.0
2015-Apr-25 14:33N 52°24' E 004°53'0 0.0
2015-Apr-25 13:33N 52°24' E 004°53'0 0.0
2015-Apr-25 12:33N 52°24' E 004°53'0 0.0
2015-Apr-25 11:33N 52°24' E 004°53'0 0.0
2015-Apr-25 10:33N 52°24' E 004°53'0 0.0
2015-Apr-25 09:33N 52°24' E 004°53'0 0.0
2015-Apr-25 08:33N 52°24' E 004°53'0 0.0
2015-Apr-25 07:33N 52°24' E 004°53'0 0.0
2015-Apr-25 06:33N 52°24' E 004°53'0 0.0
2015-Apr-25 05:33N 52°24' E 004°53'0 0.0
2015-Apr-25 04:33N 52°24' E 004°53'0 0.0
2015-Apr-25 03:33N 52°24' E 004°53'0 0.0
2015-Apr-25 02:33N 52°24' E 004°53'0 0.0
2015-Apr-25 01:33N 52°24' E 004°53'0 0.0
2015-Apr-25 00:33N 52°24' E 004°53'0 0.0
2015-Apr-24 23:33N 52°24' E 004°53'0 0.0
2015-Apr-24 22:33N 52°24' E 004°53'0 0.0
2015-Apr-24 21:33N 52°24' E 004°53'0 0.0
2015-Apr-24 20:33N 52°24' E 004°53'0 0.0
2015-Apr-24 19:33N 52°24' E 004°53'0 0.0
2015-Apr-24 18:33N 52°24' E 004°53'0 0.0
2015-Apr-24 17:33N 52°24' E 004°53'0 0.0
2015-Apr-24 16:33N 52°24' E 004°53'0 0.0
2015-Apr-24 15:33N 52°24' E 004°53'0 0.0
2015-Apr-24 14:33N 52°24' E 004°53'0 0.0
2015-Apr-24 13:33N 52°24' E 004°53'0 0.0
2015-Apr-24 12:33N 52°24' E 004°53'0 0.0
2015-Apr-24 11:33N 52°24' E 004°53'1 1.1
2015-Apr-24 10:33N 52°25' E 004°52'3 2.7
2015-Apr-24 09:34N 52°25' E 004°48'0 0.1
2015-Apr-24 08:33N 52°25' E 004°48'0 0.0
2015-Apr-24 07:33N 52°25' E 004°48'0 0.0
2015-Apr-24 06:34N 52°25' E 004°48'0 0.0
2015-Apr-24 05:33N 52°25' E 004°48'0 0.0
2015-Apr-24 04:34N 52°25' E 004°48'0 0.0
2015-Apr-24 03:33N 52°25' E 004°48'0 0.0
2015-Apr-24 02:33N 52°25' E 004°48'0 0.0
2015-Apr-24 01:34N 52°25' E 004°48'0 0.0
2015-Apr-24 00:34N 52°25' E 004°48'0 0.0
2015-Apr-23 23:33N 52°25' E 004°48'1 0.5
2015-Apr-23 22:34N 52°25' E 004°47'5 5.2
2015-Apr-23 21:34N 52°23' E 004°55'6 6.0
2015-Apr-23 20:33N 52°18' E 005°01'8 6.7
2015-Apr-23 19:25N 52°11' E 004°60'5 6.3
2015-Apr-23 18:33N 52°06' E 005°05'7 6.5
2015-Apr-23 17:33N 52°01' E 005°10'6 6.3
2015-Apr-23 16:33N 51°58' E 005°19'0 0.4
2015-Apr-23 15:33N 51°58' E 005°20'  

Dump ship's entire track history